Terminal Aerodrome Forecast
Issued by NWS

Home | Current Version | Previous Version | Text Only | Print | Product List | Glossary On
Versions: 1 2 3 4 5 6 7 8 9 10 11 12 13 14 15
000
FTUS43 KMQT 180520
TAFSAW
TAF
KSAW 180520Z 1806/1906 26007KT P6SM FEW200
     FM181400 20003KT P6SM BKN100
     FM181500 19004KT P6SM VCSH BKN070
     FM181800 16009KT 6SM -SN OVC060
     FM182000 17012G19KT 6SM -SN OVC030
     FM190000 18012G22KT P6SM OVC020
     FM190400 20008KT P6SM OVC020=

USA.gov is the U.S. government's official web portal to all federal, state and local government web resources and services.